Time;durP1;ratioP1;P1;durP2;ratioP2;P2;SDS_P1;SDS_P2;PMS_P1;PMS_P2;Temp;Humidity;BMP_temperature;BMP_pressure;BME280_temperature;BME280_humidity;BME280_pressure;Samples;Min_cycle;Max_cycle;Signal;HPM_P1;HPM_P2
2023/07/13 00:02:06;;;;;;;1.40;0.50;;;;;;;;;;5075095;28;20465;-77
2023/07/13 00:04:32;;;;;;;0.85;0.50;;;;;;;;;;5071042;28;20027;-76
2023/07/13 00:06:58;;;;;;;1.92;0.45;;;;;;;;;;5074497;28;20055;-77
2023/07/13 00:09:25;;;;;;;2.67;0.57;;;;;;;;;;5072009;28;20040;-76
2023/07/13 00:11:56;;;;;;;1.35;0.60;;;18.10;99.90;;;;;;5080843;28;20038;-77
2023/07/13 00:14:22;;;;;;;2.08;0.60;;;;;;;;;;5071026;28;20042;-77
2023/07/13 00:16:48;;;;;;;1.27;0.35;;;;;;;;;;5066595;28;20035;-77
2023/07/13 00:19:14;;;;;;;2.90;0.40;;;;;;;;;;5077705;28;20544;-76
2023/07/13 00:21:41;;;;;;;1.08;0.60;;;18.00;99.90;;;;;;5069649;28;20734;-77
2023/07/13 00:24:08;;;;;;;2.80;1.05;;;17.90;99.90;;;;;;5063575;28;20043;-77
2023/07/13 00:26:34;;;;;;;2.42;0.75;;;;;;;;;;5085040;28;20039;-77
2023/07/13 00:29:00;;;;;;;1.33;0.55;;;;;;;;;;5081507;28;20025;-78
2023/07/13 00:31:26;;;;;;;2.78;0.93;;;;;;;;;;5073837;28;20034;-76
2023/07/13 00:33:52;;;;;;;10.15;1.55;;;;;;;;;;5066069;28;20492;-76
2023/07/13 00:36:18;;;;;;;2.50;0.98;;;;;;;;;;5080427;28;20020;-76
2023/07/13 00:38:44;;;;;;;2.53;0.93;;;;;;;;;;5071892;28;20044;-76
2023/07/13 00:41:11;;;;;;;2.03;0.70;;;;;;;;;;5072425;28;20031;-76
2023/07/13 00:43:37;;;;;;;1.40;0.40;;;;;;;;;;5066518;28;20036;-76
2023/07/13 00:46:10;;;;;;;2.88;0.60;;;;;;;;;;5073383;28;20023;-78
2023/07/13 00:48:37;;;;;;;2.53;0.80;;;;;;;;;;5076697;28;20208;-77
2023/07/13 00:51:03;;;;;;;1.70;0.63;;;;;;;;;;5070995;28;20185;-77
2023/07/13 00:53:32;;;;;;;1.50;0.50;;;;;;;;;;5072590;28;20048;-77
2023/07/13 00:55:58;;;;;;;4.80;0.60;;;;;;;;;;5073896;28;20032;-77
2023/07/13 00:58:25;;;;;;;2.00;0.57;;;17.50;99.90;;;;;;5074696;28;20049;-77
2023/07/13 01:00:52;;;;;;;0.85;0.52;;;;;;;;;;5070341;28;20028;-77
2023/07/13 01:03:19;;;;;;;1.38;0.65;;;;;;;;;;5076588;28;20060;-77
2023/07/13 01:05:47;;;;;;;2.80;0.93;;;;;;;;;;5070282;28;20496;-77
2023/07/13 01:08:13;;;;;;;1.40;0.43;;;;;;;;;;5072704;28;20089;-77
2023/07/13 01:10:39;;;;;;;2.13;0.68;;;;;;;;;;5071242;28;20477;-77
2023/07/13 01:13:06;;;;;;;2.85;1.10;;;;;;;;;;5066857;28;20032;-77
2023/07/13 01:15:39;;;;;;;3.33;0.43;;;17.00;99.90;;;;;;5080100;28;20020;-77
2023/07/13 01:18:05;;;;;;;;;;;;;;;;;;5072096;28;20036;-78
2023/07/13 01:20:35;;;;;;;1.38;0.35;;;;;;;;;;5070404;28;19965;-77
2023/07/13 01:23:01;;;;;;;3.03;0.52;;;;;;;;;;5078587;28;20047;-76
2023/07/13 01:25:27;;;;;;;1.85;0.80;;;;;;;;;;5070091;28;20127;-76
2023/07/13 01:27:53;;;;;;;3.63;0.50;;;17.00;99.90;;;;;;5078643;28;20027;-76
2023/07/13 01:30:19;;;;;;;2.35;0.52;;;;;;;;;;5075943;28;20035;-76
2023/07/13 01:32:45;;;;;;;1.92;0.82;;;;;;;;;;5076478;28;20397;-77
2023/07/13 01:35:12;;;;;;;1.13;0.43;;;;;;;;;;5069945;28;20158;-76
2023/07/13 01:37:38;;;;;;;2.28;0.63;;;;;;;;;;5069405;28;20053;-77
2023/07/13 01:40:05;;;;;;;1.10;0.52;;;;;;;;;;5065398;28;20048;-77
2023/07/13 01:42:31;;;;;;;2.10;0.60;;;;;;;;;;5071179;28;20532;-77
2023/07/13 01:44:57;;;;;;;1.75;1.02;;;;;;;;;;5073032;28;20028;-77
2023/07/13 01:47:23;;;;;;;1.15;0.55;;;;;;;;;;5070382;28;20517;-78
2023/07/13 01:49:51;;;;;;;1.48;0.60;;;;;;;;;;5070000;28;20031;-77
2023/07/13 01:52:17;;;;;;;1.63;0.57;;;16.80;99.90;;;;;;5072082;28;20024;-77
2023/07/13 01:54:43;;;;;;;3.05;0.77;;;;;;;;;;5063685;28;20032;-77
2023/07/13 01:57:09;;;;;;;4.07;0.82;;;;;;;;;;5073978;28;20032;-77
2023/07/13 01:59:35;;;;;;;2.50;0.55;;;;;;;;;;5079281;28;20458;-77
2023/07/13 02:02:01;;;;;;;2.60;0.88;;;;;;;;;;5068168;28;20066;-76
2023/07/13 02:04:27;;;;;;;2.25;0.90;;;;;;;;;;5071972;28;20042;-77
2023/07/13 02:06:55;;;;;;;1.98;0.90;;;;;;;;;;5074508;28;20033;-77
2023/07/13 02:09:21;;;;;;;3.17;0.57;;;;;;;;;;5075180;28;20115;-77
2023/07/13 02:11:48;;;;;;;1.67;0.50;;;;;;;;;;5080327;28;20115;-77
2023/07/13 02:14:15;;;;;;;1.77;0.75;;;;;;;;;;5080555;28;20082;-76
2023/07/13 02:16:41;;;;;;;2.75;0.80;;;;;;;;;;5073231;28;20085;-77
2023/07/13 02:19:07;;;;;;;2.28;1.17;;;;;;;;;;5075484;28;20078;-77
2023/07/13 02:26:37;;;;;;;3.50;1.10;;;;;;;;;;4976754;28;20404;-78
2023/07/13 02:29:03;;;;;;;2.63;0.93;;;;;;;;;;4993756;28;20045;-77
2023/07/13 02:31:29;;;;;;;1.50;0.63;;;;;;;;;;4999395;28;20022;-78
2023/07/13 02:33:55;;;;;;;1.02;0.40;;;;;;;;;;5000257;28;20053;-78
2023/07/13 02:36:21;;;;;;;1.17;0.50;;;16.40;99.90;;;;;;4991639;28;20034;-76
2023/07/13 02:38:47;;;;;;;3.35;0.77;;;;;;;;;;4988007;28;20042;-75
2023/07/13 02:41:13;;;;;;;3.13;0.90;;;;;;;;;;4991044;28;20034;-76
2023/07/13 02:43:39;;;;;;;0.52;0.30;;;;;;;;;;4986660;28;20030;-76
2023/07/13 02:46:07;;;;;;;2.80;1.02;;;;;;;;;;4986940;28;20041;-76
2023/07/13 02:48:37;;;;;;;2.97;0.65;;;;;;;;;;4995250;28;20026;-77
2023/07/13 02:51:03;;;;;;;1.23;0.73;;;;;;;;;;4991943;28;20046;-76
2023/07/13 02:53:29;;;;;;;1.65;0.60;;;;;;;;;;4988439;28;20137;-78
2023/07/13 02:55:55;;;;;;;1.13;0.68;;;;;;;;;;4988707;28;20050;-77
2023/07/13 02:58:21;;;;;;;1.15;0.43;;;;;;;;;;4999572;28;20053;-78
2023/07/13 03:00:47;;;;;;;1.90;0.68;;;;;;;;;;4996210;28;20529;-77
2023/07/13 03:03:14;;;;;;;5.28;0.80;;;;;;;;;;4983159;28;20121;-77
2023/07/13 03:05:41;;;;;;;3.58;0.82;;;;;;;;;;4998209;28;20026;-77
2023/07/13 03:08:08;;;;;;;1.27;0.52;;;;;;;;;;4986908;28;20038;-77
2023/07/13 03:10:34;;;;;;;1.48;1.05;;;;;;;;;;4991889;28;20029;-77
2023/07/13 03:12:59;;;;;;;1.80;0.98;;;;;;;;;;4991320;28;20041;-78
2023/07/13 03:15:25;;;;;;;1.13;0.50;;;;;;;;;;4991306;28;20038;-77
2023/07/13 03:17:51;;;;;;;1.77;0.77;;;;;;;;;;4996442;28;20022;-78
2023/07/13 03:20:17;;;;;;;1.20;0.50;;;;;;;;;;4985793;28;20838;-76
2023/07/13 03:22:43;;;;;;;1.55;0.50;;;;;;;;;;4988251;28;20026;-77
2023/07/13 03:25:10;;;;;;;2.90;0.68;;;;;;;;;;4987485;28;20042;-78
2023/07/13 03:27:36;;;;;;;3.33;0.80;;;;;;;;;;4990342;28;20056;-77
2023/07/13 03:30:02;;;;;;;1.30;0.47;;;;;;;;;;4993978;28;20291;-77
2023/07/13 03:32:28;;;;;;;5.20;0.93;;;;;;;;;;4995404;28;20023;-78
2023/07/13 03:34:55;;;;;;;2.53;0.93;;;;;;;;;;4992873;28;20647;-77
2023/07/13 03:37:20;;;;;;;1.98;0.77;;;;;;;;;;4991756;28;20049;-78
2023/07/13 03:39:47;;;;;;;1.60;0.73;;;;;;;;;;4991049;28;21972;-76
2023/07/13 03:42:13;;;;;;;1.52;0.90;;;;;;;;;;4994286;28;20476;-76
2023/07/13 03:44:40;;;;;;;2.58;1.00;;;;;;;;;;4993604;28;20047;-77
2023/07/13 03:47:08;;;;;;;2.15;0.63;;;;;;;;;;4996325;28;20087;-77
2023/07/13 03:49:34;;;;;;;6.07;0.95;;;;;;;;;;4996636;28;20739;-77
2023/07/13 03:52:00;;;;;;;1.73;0.70;;;14.80;99.90;;;;;;5001396;28;20114;-77
2023/07/13 03:54:26;;;;;;;2.03;1.15;;;;;;;;;;5000866;28;20422;-77
2023/07/13 03:56:52;;;;;;;4.85;1.40;;;;;;;;;;4990036;28;20038;-77
2023/07/13 03:59:18;;;;;;;2.92;1.50;;;;;;;;;;4991623;28;20050;-77
2023/07/13 04:01:44;;;;;;;7.03;2.30;;;;;;;;;;4983176;28;20036;-77
2023/07/13 04:04:10;;;;;;;4.03;2.03;;;14.70;99.90;;;;;;4987765;28;20034;-77
2023/07/13 04:06:36;;;;;;;5.07;2.78;;;;;;;;;;4989934;28;20076;-77
2023/07/13 04:09:05;;;;;;;6.22;2.20;;;;;;;;;;4999848;28;20476;-76
2023/07/13 04:11:32;;;;;;;5.68;1.70;;;15.70;99.90;;;;;;4986357;28;20784;-77
2023/07/13 04:13:58;;;;;;;5.03;1.23;;;;;;;;;;4989087;28;20038;-77
2023/07/13 04:16:24;;;;;;;3.28;1.02;;;;;;;;;;4990204;28;20045;-77
2023/07/13 04:18:50;;;;;;;1.85;0.60;;;;;;;;;;4989744;28;20023;-77
2023/07/13 04:21:16;;;;;;;1.48;0.82;;;;;;;;;;4987333;28;20034;-77
2023/07/13 04:23:42;;;;;;;1.63;0.63;;;;;;;;;;4994706;28;20034;-77
2023/07/13 04:26:09;;;;;;;1.23;0.80;;;;;;;;;;4981125;28;20061;-77
2023/07/13 04:28:35;;;;;;;1.88;1.02;;;;;;;;;;4997028;28;20679;-76
2023/07/13 04:31:01;;;;;;;2.13;1.00;;;;;;;;;;4976314;28;20025;-76
2023/07/13 04:33:27;;;;;;;9.63;1.20;;;;;;;;;;4982851;28;20034;-76
2023/07/13 04:35:56;;;;;;;2.80;0.93;;;;;;;;;;4977225;28;20407;-76
2023/07/13 04:38:22;;;;;;;3.05;0.88;;;;;;;;;;4985855;28;20107;-76
2023/07/13 04:40:48;;;;;;;2.92;0.70;;;;;;;;;;4985994;28;20037;-75
2023/07/13 04:43:15;;;;;;;0.95;0.40;;;;;;;;;;4984704;28;20042;-76
2023/07/13 04:45:41;;;;;;;1.23;0.65;;;;;;;;;;4969432;28;20036;-76
2023/07/13 04:48:07;;;;;;;1.33;0.50;;;;;;;;;;4985338;28;20034;-76
2023/07/13 04:50:33;;;;;;;1.65;0.50;;;;;;;;;;4993252;28;20121;-76
2023/07/13 04:52:59;;;;;;;1.52;0.50;;;;;;;;;;4994092;28;20121;-77
2023/07/13 04:55:25;;;;;;;1.00;0.50;;;;;;;;;;4991436;28;20086;-76
2023/07/13 04:57:51;;;;;;;1.88;0.63;;;;;;;;;;4993722;28;20034;-76
2023/07/13 05:00:17;;;;;;;1.58;0.50;;;;;;;;;;4998936;28;20141;-76
2023/07/13 05:02:46;;;;;;;1.42;0.63;;;;;;;;;;4993204;28;20431;-75
2023/07/13 05:05:12;;;;;;;2.30;0.90;;;;;;;;;;4995931;28;20471;-75
2023/07/13 05:07:38;;;;;;;6.18;1.00;;;;;;;;;;4991961;28;20495;-76
2023/07/13 05:10:04;;;;;;;2.00;0.70;;;;;;;;;;4987995;28;20022;-75
2023/07/13 05:12:30;;;;;;;3.00;0.95;;;;;;;;;;4994546;28;20124;-76
2023/07/13 05:14:56;;;;;;;2.42;0.98;;;;;;;;;;4997983;28;20125;-75
2023/07/13 05:17:22;;;;;;;3.05;0.68;;;;;;;;;;4993255;28;20048;-76
2023/07/13 05:19:48;;;;;;;4.68;1.13;;;;;;;;;;4992558;28;20046;-76
2023/07/13 05:22:14;;;;;;;5.57;0.85;;;;;;;;;;4996056;28;20442;-77
2023/07/13 05:24:40;;;;;;;6.25;0.75;;;;;;;;;;4992533;28;20168;-77
2023/07/13 05:27:06;;;;;;;1.33;0.75;;;;;;;;;;5001493;28;20030;-77
2023/07/13 05:29:32;;;;;;;1.60;0.90;;;;;;;;;;4999326;28;20034;-77
2023/07/13 05:31:58;;;;;;;8.57;1.20;;;;;;;;;;4988017;28;20037;-77
2023/07/13 05:34:23;;;;;;;5.35;0.93;;;17.40;99.90;;;;;;4996590;28;20038;-77
2023/07/13 05:36:50;;;;;;;3.47;0.77;;;;;;;;;;4985964;28;20105;-76
2023/07/13 05:39:16;;;;;;;4.38;1.13;;;;;;;;;;4994568;28;20037;-77
2023/07/13 05:41:42;;;;;;;3.42;0.90;;;;;;;;;;4997030;28;20026;-76
2023/07/13 05:44:08;;;;;;;4.40;1.35;;;;;;;;;;4999723;28;20480;-77
2023/07/13 05:46:34;;;;;;;10.90;0.93;;;;;;;;;;4996279;28;20093;-76
2023/07/13 05:49:00;;;;;;;2.90;1.20;;;;;;;;;;4992339;28;20026;-77
2023/07/13 05:51:26;;;;;;;1.35;0.50;;;;;;;;;;4999863;28;20034;-77
2023/07/13 05:53:52;;;;;;;12.02;1.35;;;;;;;;;;4998765;28;20369;-77
2023/07/13 05:56:18;;;;;;;1.85;0.80;;;;;;;;;;4996622;28;20387;-76
2023/07/13 05:58:44;;;;;;;14.43;1.35;;;;;;;;;;4997100;28;20043;-76
2023/07/13 06:01:11;;;;;;;6.22;0.88;;;;;;;;;;5001257;28;20030;-77
2023/07/13 06:03:40;;;;;;;7.13;0.90;;;;;;;;;;4997887;28;20088;-77
2023/07/13 06:06:06;;;;;;;3.60;0.60;;;;;;;;;;5003158;28;20034;-77
2023/07/13 06:08:32;;;;;;;2.25;0.57;;;;;;;;;;5000237;28;20034;-76
2023/07/13 06:11:06;;;;;;;3.42;1.08;;;;;;;;;;5002402;28;20038;-77
2023/07/13 06:13:32;;;;;;;1.75;1.05;;;;;;;;;;4991753;28;20034;-76
2023/07/13 06:15:58;;;;;;;2.13;0.75;;;;;;;;;;4993205;28;20040;-76
2023/07/13 06:18:23;;;;;;;1.23;0.68;;;20.00;99.90;;;;;;4981908;28;21132;-76
2023/07/13 06:20:49;;;;;;;3.33;0.70;;;;;;;;;;4989961;28;20117;-76
2023/07/13 06:23:15;;;;;;;5.55;1.33;;;;;;;;;;4998570;28;20558;-76
2023/07/13 06:25:41;;;;;;;0.73;0.40;;;;;;;;;;4993986;28;20483;-76
2023/07/13 06:28:07;;;;;;;2.55;0.85;;;;;;;;;;4990070;28;20022;-77
2023/07/13 06:30:33;;;;;;;1.20;0.70;;;;;;;;;;4993611;28;20072;-76
2023/07/13 06:32:59;;;;;;;1.67;0.63;;;;;;;;;;4988209;28;20034;-76
2023/07/13 06:35:25;;;;;;;1.23;0.65;;;;;;;;;;4982539;28;20045;-76
2023/07/13 06:37:51;;;;;;;1.17;0.40;;;;;;;;;;4989378;28;20030;-77
2023/07/13 06:40:17;;;;;;;2.13;0.70;;;;;;;;;;4985882;28;20511;-77
2023/07/13 06:42:43;;;;;;;3.03;0.80;;;;;;;;;;4995244;28;20402;-77
2023/07/13 06:45:09;;;;;;;1.65;0.65;;;;;;;;;;4995113;28;20034;-77
2023/07/13 06:47:35;;;;;;;2.03;0.80;;;;;;;;;;4992973;28;20029;-77
2023/07/13 06:50:01;;;;;;;2.85;0.90;;;;;;;;;;4986806;28;20030;-76
2023/07/13 06:52:27;;;;;;;1.35;0.40;;;;;;;;;;4993339;28;20033;-77
2023/07/13 06:54:53;;;;;;;1.52;0.70;;;;;;;;;;4995886;28;20031;-76
2023/07/13 06:57:19;;;;;;;5.53;1.10;;;;;;;;;;4994336;28;20022;-77
2023/07/13 06:59:45;;;;;;;11.35;1.05;;;;;;;;;;4993887;28;20180;-76
2023/07/13 07:02:11;;;;;;;6.03;0.77;;;;;;;;;;5003015;28;20398;-76
2023/07/13 07:04:37;;;;;;;5.05;0.98;;;;;;;;;;4988461;28;20026;-78
2023/07/13 07:07:03;;;;;;;1.73;0.70;;;;;;;;;;4992827;28;20030;-78
2023/07/13 07:09:31;;;;;;;1.60;0.70;;;;;;;;;;4994729;28;20040;-77
2023/07/13 07:11:57;;;;;;;1.65;0.50;;;;;;;;;;4995116;28;20038;-77
2023/07/13 07:14:23;;;;;;;5.13;1.15;;;;;;;;;;4992603;28;20995;-78
2023/07/13 07:16:50;;;;;;;2.63;0.90;;;;;;;;;;4988319;28;20092;-78
2023/07/13 07:19:16;;;;;;;2.88;0.80;;;25.10;98.40;;;;;;4991376;28;20042;-77
2023/07/13 07:21:42;;;;;;;2.55;0.70;;;;;;;;;;4997666;28;20120;-77
2023/07/13 07:24:08;;;;;;;0.98;0.40;;;;;;;;;;4992906;28;20034;-76
2023/07/13 07:26:34;;;;;;;0.95;0.30;;;;;;;;;;4991410;28;20482;-78
2023/07/13 07:29:00;;;;;;;3.33;0.50;;;;;;;;;;4997210;28;20502;-77
2023/07/13 07:31:26;;;;;;;2.90;0.40;;;;;;;;;;4999435;28;20083;-77
2023/07/13 07:33:52;;;;;;;2.33;0.45;;;28.70;95.00;;;;;;5003060;28;20077;-78
2023/07/13 07:36:18;;;;;;;0.77;0.50;;;;;;;;;;5004772;28;20033;-77
2023/07/13 07:38:44;;;;;;;0.85;0.32;;;;;;;;;;4994415;28;20034;-78
2023/07/13 07:41:10;;;;;;;0.47;0.20;;;30.20;92.60;;;;;;4995804;28;20038;-76
2023/07/13 07:43:35;;;;;;;4.20;0.40;;;29.30;66.90;;;;;;5003472;28;20113;-78
2023/07/13 07:46:01;;;;;;;3.15;0.70;;;;;;;;;;5002388;28;20026;-77
2023/07/13 07:48:27;;;;;;;0.60;0.30;;;;;;;;;;4999881;28;20034;-77
2023/07/13 07:50:53;;;;;;;1.55;0.35;;;;;;;;;;5003005;28;20122;-78
2023/07/13 07:53:19;;;;;;;1.48;0.60;;;;;;;;;;4995220;28;21032;-76
2023/07/13 07:55:45;;;;;;;1.33;0.38;;;;;;;;;;4998296;28;20918;-77
2023/07/13 07:58:11;;;;;;;3.00;0.30;;;;;;;;;;4998883;28;20033;-78
2023/07/13 08:00:37;;;;;;;1.27;0.30;;;;;;;;;;4997754;28;20502;-78
2023/07/13 08:03:03;;;;;;;4.13;0.50;;;;;;;;;;4991204;28;20035;-77
2023/07/13 08:05:29;;;;;;;1.88;0.82;;;;;;;;;;4999063;28;20034;-77
2023/07/13 08:07:55;;;;;;;3.10;0.40;;;;;;;;;;4988381;28;20026;-76
2023/07/13 08:10:21;;;;;;;0.88;0.22;;;27.90;81.60;;;;;;5007246;28;20029;-77
2023/07/13 08:12:47;;;;;;;0.65;0.10;;;;;;;;;;5007390;28;20025;-76
2023/07/13 08:15:15;;;;;;;1.75;0.32;;;26.80;68.50;;;;;;5006637;28;20428;-77
2023/07/13 08:17:41;;;;;;;2.65;0.30;;;;;;;;;;4996972;28;20053;-77
2023/07/13 08:20:08;;;;;;;4.30;0.35;;;;;;;;;;4995813;28;20399;-78
2023/07/13 08:22:35;;;;;;;2.58;0.35;;;;;;;;;;5003259;28;20061;-75
2023/07/13 08:25:01;;;;;;;3.47;0.50;;;;;;;;;;4999074;28;20065;-76
2023/07/13 08:27:28;;;;;;;3.83;0.50;;;26.90;68.80;;;;;;5000224;28;20450;-77
2023/07/13 08:29:54;;;;;;;1.20;0.40;;;;;;;;;;5001204;28;20081;-77
2023/07/13 08:32:21;;;;;;;1.85;0.60;;;;;;;;;;5006201;28;20430;-77
2023/07/13 08:34:47;;;;;;;1.65;0.45;;;;;;;;;;5005527;28;20034;-75
2023/07/13 08:37:13;;;;;;;1.65;0.30;;;;;;;;;;4997907;28;20030;-76
2023/07/13 08:39:39;;;;;;;1.25;0.32;;;26.10;74.20;;;;;;5000067;28;20410;-76
2023/07/13 08:42:13;;;;;;;1.73;0.40;;;;;;;;;;5010452;28;20083;-76
2023/07/13 08:44:55;;;;;;;2.05;0.25;;;;;;;;;;4998040;28;20034;-76
2023/07/13 08:47:23;;;;;;;0.93;0.30;;;28.40;66.10;;;;;;5001300;28;20040;-77
2023/07/13 08:49:49;;;;;;;1.10;0.40;;;30.40;59.20;;;;;;5003938;28;20038;-77
2023/07/13 08:52:37;;;;;;;0.22;0.17;;;31.80;58.10;;;;;;5001942;28;20038;-77
2023/07/13 08:55:15;;;;;;;1.10;0.28;;;33.10;57.30;;;;;;4999331;28;21098;-77
2023/07/13 08:57:41;;;;;;;1.02;0.25;;;;;;;;;;5005409;28;20029;-77
2023/07/13 09:00:12;;;;;;;1.92;0.40;;;35.30;49.70;;;;;;5002430;28;20092;-78
2023/07/13 09:02:55;;;;;;;3.17;0.43;;;34.80;51.30;;;;;;4999935;28;20452;-77
2023/07/13 09:05:21;;;;;;;1.98;0.35;;;;;;;;;;5003836;28;20076;-76
2023/07/13 09:07:55;;;;;;;1.55;0.50;;;36.20;45.50;;;;;;4994710;28;20058;-76
2023/07/13 09:10:28;;;;;;;2.30;0.40;;;35.90;52.60;;;;;;4997485;28;20030;-78
2023/07/13 09:13:22;;;;;;;3.10;0.50;;;36.10;47.10;;;;;;5000358;28;20554;-76
2023/07/13 09:15:49;;;;;;;0.95;0.50;;;35.90;47.60;;;;;;5003137;28;20034;-77
2023/07/13 09:18:46;;;;;;;4.03;0.20;;;36.10;45.40;;;;;;4993849;28;20034;-78
2023/07/13 09:21:29;;;;;;;0.68;0.22;;;35.50;49.80;;;;;;4988439;28;20042;-77
2023/07/13 09:24:12;;;;;;;3.03;0.43;;;36.70;49.30;;;;;;5004259;28;20027;-77
2023/07/13 09:26:38;;;;;;;0.80;0.38;;;;;;;;;;5002356;28;20052;-77
2023/07/13 09:29:14;;;;;;;0.73;0.20;;;36.40;46.90;;;;;;5006097;28;20033;-76
2023/07/13 09:31:46;;;;;;;2.50;0.38;;;35.60;69.50;;;;;;5008551;28;20046;-76
2023/07/13 09:34:13;;;;;;;0.80;0.30;;;33.50;47.90;;;;;;4995462;28;20030;-76
2023/07/13 09:36:39;;;;;;;2.33;0.57;;;;;;;;;;4991557;28;20033;-77
2023/07/13 09:39:07;;;;;;;5.28;0.38;;;31.10;51.70;;;;;;4987946;28;20133;-77
2023/07/13 09:41:50;;;;;;;2.10;0.70;;;30.40;58.00;;;;;;4998548;28;20022;-78
2023/07/13 09:44:17;;;;;;;1.55;0.38;;;29.30;64.80;;;;;;4998144;28;20034;-77
2023/07/13 09:46:53;;;;;;;1.42;0.35;;;29.20;59.60;;;;;;4989769;28;20033;-76
2023/07/13 09:49:19;;;;;;;1.10;0.40;;;;;;;;;;4986462;28;20034;-76
2023/07/13 09:51:46;;;;;;;1.00;0.38;;;;;;;;;;4986392;28;20108;-77
2023/07/13 09:54:20;;;;;;;0.82;0.40;;;27.70;62.60;;;;;;4988454;28;20121;-76
2023/07/13 09:56:45;;;;;;;2.55;0.90;;;27.40;85.70;;;;;;4988078;28;20027;-77
2023/07/13 09:59:20;;;;;;;3.03;0.50;;;27.80;62.70;;;;;;4993278;28;20042;-76
2023/07/13 10:01:48;;;;;;;3.08;0.45;;;;;;;;;;4994357;28;20124;-77
2023/07/13 10:04:18;;;;;;;5.78;0.77;;;27.70;65.10;;;;;;4983517;28;20080;-77
2023/07/13 10:06:44;;;;;;;3.97;0.63;;;27.60;82.30;;;;;;4984714;28;20034;-77
2023/07/13 10:09:11;;;;;;;0.63;0.43;;;;;;;;;;4989108;28;20033;-76
2023/07/13 10:11:37;;;;;;;2.00;0.40;;;;;;;;;;4991187;28;20467;-77
2023/07/13 10:14:13;;;;;;;2.08;0.60;;;26.70;66.90;;;;;;4990423;28;20022;-77
2023/07/13 10:16:41;;;;;;;9.43;0.38;;;;;;;;;;4985447;28;20037;-76
2023/07/13 10:19:20;;;;;;;3.30;0.70;;;26.70;85.80;;;;;;4995657;28;20042;-76
2023/07/13 10:21:59;;;;;;;1.45;0.22;;;27.40;63.80;;;;;;4996478;28;20944;-76
2023/07/13 10:24:31;;;;;;;3.13;0.40;;;27.00;64.50;;;;;;4995645;28;20049;-76
2023/07/13 10:27:09;;;;;;;7.60;0.60;;;27.10;66.20;;;;;;4995344;28;20149;-77
2023/07/13 10:29:40;;;;;;;2.53;0.40;;;26.90;66.70;;;;;;4990591;28;20038;-77
2023/07/13 10:32:12;;;;;;;1.95;0.50;;;26.40;66.70;;;;;;4988129;28;20128;-77
2023/07/13 10:34:38;;;;;;;3.20;0.30;;;;;;;;;;4974775;28;20161;-77
2023/07/13 10:37:05;;;;;;;2.60;0.68;;;;;;;;;;4979846;28;20635;-76
2023/07/13 10:39:35;;;;;;;3.75;0.65;;;26.20;66.20;;;;;;4989506;28;20049;-77
2023/07/13 10:42:05;;;;;;;1.60;0.30;;;26.30;84.20;;;;;;4989284;28;20030;-77
2023/07/13 10:44:32;;;;;;;2.63;0.50;;;26.60;65.80;;;;;;4992751;28;20646;-77
2023/07/13 10:47:27;;;;;;;0.70;0.40;;;26.30;85.70;;;;;;4996612;28;20475;-77
2023/07/13 10:49:56;;;;;;;0.63;0.38;;;26.30;65.90;;;;;;4971970;28;20042;-77
2023/07/13 10:52:50;;;;;;;2.60;0.30;;;25.90;61.90;;;;;;4989866;28;20169;-77
2023/07/13 10:55:35;;;;;;;2.95;0.40;;;26.10;69.00;;;;;;4996215;28;20041;-78
2023/07/13 10:58:28;;;;;;;1.00;0.28;;;27.10;63.20;;;;;;4989260;28;20109;-77
2023/07/13 11:01:06;;;;;;;0.73;0.28;;;26.80;60.70;;;;;;4993440;28;20050;-77
2023/07/13 11:03:38;;;;;;;3.85;0.38;;;26.70;64.40;;;;;;4993580;28;20138;-77
2023/07/13 11:06:22;;;;;;;1.73;0.38;;;27.10;61.40;;;;;;5000836;28;20021;-77
2023/07/13 11:08:48;;;;;;;3.78;0.50;;;26.50;89.30;;;;;;4995548;28;20204;-77
2023/07/13 11:11:36;;;;;;;4.90;0.50;;;26.60;66.10;;;;;;4982984;28;20786;-77
2023/07/13 11:14:05;;;;;;;0.63;0.40;;;26.50;87.70;;;;;;4993307;28;20038;-78
2023/07/13 11:16:44;;;;;;;2.33;0.35;;;26.80;72.90;;;;;;5000671;28;20030;-79
2023/07/13 11:19:16;;;;;;;1.52;0.40;;;;;;;;;;5001197;28;20044;-77
2023/07/13 11:22:05;;;;;;;1.08;0.45;;;25.70;62.30;;;;;;4998521;28;20013;-79
2023/07/13 11:24:51;;;;;;;1.50;0.22;;;26.70;88.40;;;;;;4997878;28;20030;-76
2023/07/13 11:27:38;;;;;;;0.63;0.35;;;27.30;61.50;;;;;;4999090;28;20037;-77
2023/07/13 11:30:30;;;;;;;1.67;0.28;;;27.00;79.00;;;;;;5006248;28;20104;-77
2023/07/13 11:33:48;;;;;;;1.33;0.28;;;27.40;65.50;;;;;;4993966;28;20503;-77
2023/07/13 11:36:17;;;;;;;5.18;0.47;;;26.70;63.20;;;;;;4921378;29;20036;-78
2023/07/13 11:38:55;;;;;;;1.63;0.30;;;26.40;63.00;;;;;;4993945;28;20042;-78
2023/07/13 11:41:44;;;;;;;2.13;0.43;;;26.40;59.90;;;;;;4991425;28;20394;-80
2023/07/13 11:44:15;;;;;;;0.93;0.30;;;25.80;60.40;;;;;;5000124;28;20037;-78
2023/07/13 11:46:48;;;;;;;1.67;0.20;;;26.20;66.30;;;;;;4998475;28;20030;-77
2023/07/13 11:49:16;;;;;;;0.80;0.55;;;;;;;;;;4985600;28;20041;-78
2023/07/13 11:51:42;;;;;;;1.65;0.40;;;;;;;;;;4990810;28;20029;-78
2023/07/13 11:54:27;;;;;;;7.10;0.38;;;26.10;63.90;;;;;;4994686;28;20566;-77
2023/07/13 11:56:54;;;;;;;2.03;0.45;;;;;;;;;;4996905;28;20034;-76
2023/07/13 11:59:21;;;;;;;3.10;0.43;;;;;;;;;;4995091;28;20046;-79
2023/07/13 12:01:52;;;;;;;4.22;0.63;;;26.80;65.00;;;;;;4994323;28;20030;-78
2023/07/13 12:04:29;;;;;;;2.00;0.35;;;27.40;60.50;;;;;;4990901;28;20072;-78
2023/07/13 12:06:58;;;;;;;1.80;0.70;;;26.70;64.40;;;;;;4990324;28;20562;-78
2023/07/13 12:09:27;;;;;;;2.47;0.65;;;26.60;81.20;;;;;;4989300;28;20030;-77
2023/07/13 12:11:53;;;;;;;5.53;0.45;;;;;;;;;;4998414;28;20113;-78
2023/07/13 12:14:20;;;;;;;4.63;0.95;;;28.10;64.60;;;;;;4999583;28;20473;-78
2023/07/13 12:16:47;;;;;;;4.70;0.60;;;;;;;;;;4998552;28;20555;-78
2023/07/13 12:19:27;;;;;;;3.42;0.40;;;26.80;61.20;;;;;;4977066;28;20046;-78
2023/07/13 12:21:56;;;;;;;2.22;0.60;;;26.60;62.60;;;;;;4987199;28;20482;-77
2023/07/13 12:24:23;;;;;;;1.10;0.45;;;;;;;;;;4992128;28;20042;-78
2023/07/13 12:27:04;;;;;;;3.28;0.55;;;26.80;58.90;;;;;;5001456;28;20027;-77
2023/07/13 12:29:31;;;;;;;1.65;0.45;;;26.90;62.60;;;;;;5004765;28;20026;-77
2023/07/13 12:31:58;;;;;;;1.40;0.40;;;;;;;;;;4999042;28;20034;-77
2023/07/13 12:34:25;;;;;;;5.70;0.45;;;27.60;62.20;;;;;;5004606;28;20444;-78
2023/07/13 12:36:51;;;;;;;2.95;0.50;;;;;;;;;;4992974;28;20019;-78
2023/07/13 12:39:30;;;;;;;4.00;0.43;;;27.30;57.60;;;;;;4987666;28;20053;-78
2023/07/13 12:42:39;;;;;;;2.60;0.40;;;26.80;61.90;;;;;;4994279;28;20086;-77
2023/07/13 12:45:21;;;;;;;4.38;0.47;;;27.00;59.40;;;;;;4989913;28;20030;-77
2023/07/13 12:47:49;;;;;;;1.40;0.40;;;;;;;;;;4975260;28;20510;-77
2023/07/13 12:50:16;;;;;;;1.67;0.60;;;;;;;;;;4966498;28;20038;-78
2023/07/13 12:52:43;;;;;;;0.85;0.40;;;;;;;;;;4988465;28;20431;-78
2023/07/13 12:55:16;;;;;;;1.70;1.25;;;26.30;59.70;;;;;;4970360;28;20073;-78
2023/07/13 12:57:58;;;;;;;3.08;0.60;;;26.90;64.10;;;;;;4984333;28;20150;-78
2023/07/13 13:00:24;;;;;;;6.82;0.75;;;;;;;;;;4995844;28;20108;-78
2023/07/13 13:02:51;;;;;;;1.90;0.57;;;27.10;62.70;;;;;;5000273;28;20109;-78
2023/07/13 13:05:17;;;;;;;1.23;0.30;;;;;;;;;;4990590;28;20045;-77
2023/07/13 13:07:46;;;;;;;0.98;0.35;;;;;;;;;;4980703;28;20022;-78
2023/07/13 13:10:13;;;;;;;2.05;0.60;;;26.60;62.20;;;;;;4995591;28;20034;-77
2023/07/13 13:12:42;;;;;;;2.60;0.30;;;;;;;;;;4996514;28;20101;-77
2023/07/13 13:15:08;;;;;;;5.38;0.30;;;;;;;;;;4998768;28;20163;-77
2023/07/13 13:17:34;;;;;;;1.63;0.65;;;;;;;;;;4994189;28;20511;-77
2023/07/13 13:20:00;;;;;;;5.05;0.43;;;;;;;;;;4981788;28;20509;-77
2023/07/13 13:22:26;;;;;;;0.40;0.20;;;;;;;;;;4976529;28;20124;-77
2023/07/13 13:24:52;;;;;;;1.23;0.38;;;;;;;;;;4978207;28;20050;-76
2023/07/13 13:27:20;;;;;;;1.60;0.30;;;;;;;;;;4984067;28;20151;-77
2023/07/13 13:29:46;;;;;;;0.60;0.30;;;26.90;61.70;;;;;;4997230;28;20018;-80
2023/07/13 13:32:13;;;;;;;5.80;0.47;;;27.00;61.90;;;;;;4995098;28;20395;-79
2023/07/13 13:34:39;;;;;;;2.45;0.40;;;;;;;;;;4990411;28;20026;-78
2023/07/13 13:37:19;;;;;;;1.55;0.40;;;26.60;61.90;;;;;;4992537;28;20160;-78
2023/07/13 13:39:46;;;;;;;1.20;0.40;;;;;;;;;;4976151;28;20122;-77
2023/07/13 13:42:12;;;;;;;2.05;0.57;;;;;;;;;;4988493;28;20041;-78
2023/07/13 13:44:40;;;;;;;3.03;0.50;;;;;;;;;;4988821;28;20027;-78
2023/07/13 13:47:22;;;;;;;1.38;0.40;;;26.50;65.90;;;;;;4982731;28;20025;-78
2023/07/13 13:49:48;;;;;;;6.05;0.70;;;26.50;83.40;;;;;;4976268;28;20033;-77
2023/07/13 13:52:15;;;;;;;2.00;0.30;;;;;;;;;;4986613;28;24729;-77
2023/07/13 13:54:41;;;;;;;1.25;0.20;;;26.30;90.00;;;;;;4988470;28;21786;-77
2023/07/13 13:57:07;;;;;;;2.75;0.55;;;;;;;;;;4995880;28;20089;-77
2023/07/13 13:59:39;;;;;;;0.95;0.45;;;;;;;;;;4979151;28;20074;-78
2023/07/13 14:02:25;;;;;;;2.95;1.02;;;26.10;65.20;;;;;;4987659;28;20105;-77
2023/07/13 14:04:59;;;;;;;3.65;0.63;;;26.40;67.00;;;;;;4984859;28;20080;-77
2023/07/13 14:07:25;;;;;;;1.30;0.45;;;26.80;90.20;;;;;;4987200;28;20382;-78
2023/07/13 14:09:52;;;;;;;1.45;0.45;;;;;;;;;;4988171;28;20038;-80
2023/07/13 14:12:18;;;;;;;0.82;0.38;;;;;;;;;;4996005;28;20026;-78
2023/07/13 14:14:44;;;;;;;4.13;0.60;;;;;;;;;;4996476;28;20077;-78
2023/07/13 14:17:24;;;;;;;1.50;0.40;;;28.40;61.90;;;;;;5000477;28;20030;-77
2023/07/13 14:19:51;;;;;;;1.48;0.35;;;26.90;65.20;;;;;;4987692;28;20034;-77